sensor_id;sensor_type;location;lat;lon;timestamp;pressure;altitude;pressure_sealevel;temperature;humidity
64967;BME280;51710;38.732;-121.358;2022-09-09T00:01:20;99681.38;;;43.01;19.47
64967;BME280;51710;38.732;-121.358;2022-09-09T00:04:21;99677.78;;;43.00;19.61
64967;BME280;51710;38.732;-121.358;2022-09-09T00:09:21;99663.75;;;43.00;19.79
64967;BME280;51710;38.732;-121.358;2022-09-09T00:12:33;99660.94;;;43.00;18.92
64967;BME280;51710;38.732;-121.358;2022-09-09T00:14:56;99659.34;;;43.03;19.97
64967;BME280;51710;38.732;-121.358;2022-09-09T00:20:38;99650.53;;;42.97;19.92
64967;BME280;51710;38.732;-121.358;2022-09-09T00:23:17;99651.34;;;42.94;19.86
64967;BME280;51710;38.732;-121.358;2022-09-09T00:25:53;99649.31;;;42.91;19.79
64967;BME280;51710;38.732;-121.358;2022-09-09T00:28:26;99652.94;;;42.88;19.96
64967;BME280;51710;38.732;-121.358;2022-09-09T00:31:18;99636.09;;;42.81;19.62
64967;BME280;51710;38.732;-121.358;2022-09-09T00:33:46;99647.31;;;42.78;19.56
64967;BME280;51710;38.732;-121.358;2022-09-09T00:36:18;99637.69;;;42.75;20.14
64967;BME280;51710;38.732;-121.358;2022-09-09T00:38:59;99633.66;;;42.73;19.91
64967;BME280;51710;38.732;-121.358;2022-09-09T00:41:39;99635.25;;;42.67;19.51
64967;BME280;51710;38.732;-121.358;2022-09-09T00:44:20;99629.25;;;42.61;19.93
64967;BME280;51710;38.732;-121.358;2022-09-09T00:57:36;99617.97;;;42.36;19.66
64967;BME280;51710;38.732;-121.358;2022-09-09T01:00:29;99619.94;;;42.32;19.71
64967;BME280;51710;38.732;-121.358;2022-09-09T01:16:59;99612.28;;;42.05;20.48
64967;BME280;51710;38.732;-121.358;2022-09-09T01:22:22;99613.78;;;41.92;20.43
64967;BME280;51710;38.732;-121.358;2022-09-09T01:27:51;99619.31;;;41.71;20.46
64967;BME280;51710;38.732;-121.358;2022-09-09T01:30:19;99606.03;;;41.61;20.78
64967;BME280;51710;38.732;-121.358;2022-09-09T01:32:55;99613.94;;;41.52;21.02
64967;BME280;51710;38.732;-121.358;2022-09-09T01:35:50;99609.91;;;41.42;20.93
64967;BME280;51710;38.732;-121.358;2022-09-09T01:38:21;99616.25;;;41.32;20.87
64967;BME280;51710;38.732;-121.358;2022-09-09T01:40:48;99611.75;;;41.20;20.78
64967;BME280;51710;38.732;-121.358;2022-09-09T01:43:14;99608.47;;;41.11;20.81
64967;BME280;51710;38.732;-121.358;2022-09-09T01:45:42;99607.22;;;41.05;21.21
64967;BME280;51710;38.732;-121.358;2022-09-09T01:48:10;99607.16;;;40.98;21.21
64967;BME280;51710;38.732;-121.358;2022-09-09T01:50:36;99607.47;;;40.86;21.58
64967;BME280;51710;38.732;-121.358;2022-09-09T01:53:03;99603.78;;;40.75;21.57
64967;BME280;51710;38.732;-121.358;2022-09-09T01:55:31;99609.22;;;40.65;21.63
64967;BME280;51710;38.732;-121.358;2022-09-09T01:58:40;99605.94;;;40.52;21.85
64967;BME280;51710;38.732;-121.358;2022-09-09T02:01:34;99601.81;;;40.39;21.38
64967;BME280;51710;38.732;-121.358;2022-09-09T02:04:12;99602.41;;;40.22;21.56
64967;BME280;51710;38.732;-121.358;2022-09-09T02:06:46;99599.06;;;40.09;22.28
64967;BME280;51710;38.732;-121.358;2022-09-09T02:09:19;99599.69;;;39.96;22.16
64967;BME280;51710;38.732;-121.358;2022-09-09T02:11:49;99594.69;;;39.79;21.96
64967;BME280;51710;38.732;-121.358;2022-09-09T02:14:25;99600.81;;;39.62;22.32
64967;BME280;51710;38.732;-121.358;2022-09-09T02:17:03;99594.91;;;39.41;22.41
64967;BME280;51710;38.732;-121.358;2022-09-09T02:19:36;99586.66;;;39.21;22.72
64967;BME280;51710;38.732;-121.358;2022-09-09T02:22:04;99586.50;;;39.11;22.40
64967;BME280;51710;38.732;-121.358;2022-09-09T02:24:34;99591.13;;;39.03;22.41
64967;BME280;51710;38.732;-121.358;2022-09-09T02:27:04;99587.81;;;38.94;22.11
64967;BME280;51710;38.732;-121.358;2022-09-09T02:29:34;99590.09;;;38.89;21.68
64967;BME280;51710;38.732;-121.358;2022-09-09T02:32:06;99578.78;;;38.78;22.24
64967;BME280;51710;38.732;-121.358;2022-09-09T02:34:38;99580.16;;;38.65;22.59
64967;BME280;51710;38.732;-121.358;2022-09-09T02:37:08;99583.81;;;38.50;22.12
64967;BME280;51710;38.732;-121.358;2022-09-09T02:39:35;99582.72;;;38.32;22.83
64967;BME280;51710;38.732;-121.358;2022-09-09T02:42:04;99597.34;;;38.10;24.19
64967;BME280;51710;38.732;-121.358;2022-09-09T02:44:31;99589.75;;;37.88;24.16
64967;BME280;51710;38.732;-121.358;2022-09-09T02:55:37;99584.03;;;37.11;24.56
64967;BME280;51710;38.732;-121.358;2022-09-09T02:58:07;99586.75;;;36.92;24.87
64967;BME280;51710;38.732;-121.358;2022-09-09T03:00:34;99594.78;;;36.66;25.88
64967;BME280;51710;38.732;-121.358;2022-09-09T03:03:06;99596.34;;;36.36;26.41
64967;BME280;51710;38.732;-121.358;2022-09-09T03:05:34;99591.63;;;36.09;26.63
64967;BME280;51710;38.732;-121.358;2022-09-09T03:08:02;99591.47;;;35.90;26.49
64967;BME280;51710;38.732;-121.358;2022-09-09T03:10:29;99596.56;;;35.76;27.47
64967;BME280;51710;38.732;-121.358;2022-09-09T03:12:56;99593.03;;;35.63;27.20
64967;BME280;51710;38.732;-121.358;2022-09-09T03:15:22;99605.16;;;35.59;26.92
64967;BME280;51710;38.732;-121.358;2022-09-09T03:17:49;99602.72;;;35.57;27.22
64967;BME280;51710;38.732;-121.358;2022-09-09T03:20:15;99600.31;;;35.56;27.80
64967;BME280;51710;38.732;-121.358;2022-09-09T03:22:42;99611.28;;;35.52;27.27
64967;BME280;51710;38.732;-121.358;2022-09-09T03:25:09;99610.97;;;35.42;27.21
64967;BME280;51710;38.732;-121.358;2022-09-09T03:27:35;99605.97;;;35.35;27.66
64967;BME280;51710;38.732;-121.358;2022-09-09T03:30:02;99599.97;;;35.33;27.01
64967;BME280;51710;38.732;-121.358;2022-09-09T03:32:29;99607.47;;;35.33;27.11
64967;BME280;51710;38.732;-121.358;2022-09-09T03:34:57;99610.47;;;35.28;27.56
64967;BME280;51710;38.732;-121.358;2022-09-09T03:37:23;99610.59;;;35.19;27.55
64967;BME280;51710;38.732;-121.358;2022-09-09T03:39:49;99611.91;;;35.09;28.10
64967;BME280;51710;38.732;-121.358;2022-09-09T03:42:16;99620.66;;;34.99;28.38
64967;BME280;51710;38.732;-121.358;2022-09-09T03:44:46;99622.91;;;34.85;28.61
64967;BME280;51710;38.732;-121.358;2022-09-09T03:47:19;99621.28;;;34.72;28.47
64967;BME280;51710;38.732;-121.358;2022-09-09T03:49:47;99622.88;;;34.61;28.57
64967;BME280;51710;38.732;-121.358;2022-09-09T03:52:15;99626.91;;;34.52;28.86
64967;BME280;51710;38.732;-121.358;2022-09-09T03:54:42;99625.84;;;34.44;29.15
64967;BME280;51710;38.732;-121.358;2022-09-09T03:57:09;99628.31;;;34.37;29.32
64967;BME280;51710;38.732;-121.358;2022-09-09T03:59:36;99635.91;;;34.28;29.57
64967;BME280;51710;38.732;-121.358;2022-09-09T04:02:04;99624.78;;;34.16;29.26
64967;BME280;51710;38.732;-121.358;2022-09-09T04:04:30;99635.31;;;34.02;29.51
64967;BME280;51710;38.732;-121.358;2022-09-09T04:06:57;99640.28;;;33.88;30.49
64967;BME280;51710;38.732;-121.358;2022-09-09T04:09:23;99638.16;;;33.73;30.27
64967;BME280;51710;38.732;-121.358;2022-09-09T04:11:49;99650.25;;;33.60;30.75
64967;BME280;51710;38.732;-121.358;2022-09-09T04:14:16;99652.50;;;33.46;31.51
64967;BME280;51710;38.732;-121.358;2022-09-09T04:16:42;99650.72;;;33.33;32.64
64967;BME280;51710;38.732;-121.358;2022-09-09T04:19:11;99649.97;;;33.24;33.38
64967;BME280;51710;38.732;-121.358;2022-09-09T04:21:40;99645.97;;;33.13;33.02
64967;BME280;51710;38.732;-121.358;2022-09-09T04:24:08;99645.84;;;33.00;33.93
64967;BME280;51710;38.732;-121.358;2022-09-09T04:26:35;99647.34;;;32.89;34.72
64967;BME280;51710;38.732;-121.358;2022-09-09T04:29:03;99656.94;;;32.83;34.40
64967;BME280;51710;38.732;-121.358;2022-09-09T04:31:30;99650.78;;;32.78;35.11
64967;BME280;51710;38.732;-121.358;2022-09-09T04:33:57;99646.94;;;32.70;34.77
64967;BME280;51710;38.732;-121.358;2022-09-09T04:36:23;99656.34;;;32.61;35.87
64967;BME280;51710;38.732;-121.358;2022-09-09T04:38:50;99655.72;;;32.47;35.92
64967;BME280;51710;38.732;-121.358;2022-09-09T04:41:16;99650.53;;;32.37;36.53
64967;BME280;51710;38.732;-121.358;2022-09-09T04:43:42;99651.69;;;32.27;36.35
64967;BME280;51710;38.732;-121.358;2022-09-09T04:46:09;99651.06;;;32.13;36.81
64967;BME280;51710;38.732;-121.358;2022-09-09T04:48:35;99651.22;;;31.99;36.79
64967;BME280;51710;38.732;-121.358;2022-09-09T04:51:06;99647.84;;;31.94;36.77
64967;BME280;51710;38.732;-121.358;2022-09-09T04:53:34;99647.66;;;31.90;36.81
64967;BME280;51710;38.732;-121.358;2022-09-09T04:56:08;99642.59;;;31.84;37.00
64967;BME280;51710;38.732;-121.358;2022-09-09T04:58:39;99656.53;;;31.70;37.64
64967;BME280;51710;38.732;-121.358;2022-09-09T05:01:11;99653.09;;;31.56;37.90
64967;BME280;51710;38.732;-121.358;2022-09-09T05:03:38;99657.59;;;31.44;38.54
64967;BME280;51710;38.732;-121.358;2022-09-09T05:06:10;99654.94;;;31.30;38.44
64967;BME280;51710;38.732;-121.358;2022-09-09T05:08:38;99648.09;;;31.19;38.63
64967;BME280;51710;38.732;-121.358;2022-09-09T05:11:20;99648.56;;;31.13;38.50
64967;BME280;51710;38.732;-121.358;2022-09-09T05:13:49;99658.13;;;31.07;38.99
64967;BME280;51710;38.732;-121.358;2022-09-09T05:16:16;99648.88;;;31.03;38.95
64967;BME280;51710;38.732;-121.358;2022-09-09T05:18:43;99653.56;;;31.02;39.05
64967;BME280;51710;38.732;-121.358;2022-09-09T05:21:11;99648.06;;;31.02;38.60
64967;BME280;51710;38.732;-121.358;2022-09-09T05:23:38;99646.44;;;31.01;38.74
64967;BME280;51710;38.732;-121.358;2022-09-09T05:26:06;99652.28;;;31.00;38.77
64967;BME280;51710;38.732;-121.358;2022-09-09T05:28:36;99649.50;;;31.00;38.89
64967;BME280;51710;38.732;-121.358;2022-09-09T05:31:10;99651.78;;;30.98;39.02
64967;BME280;51710;38.732;-121.358;2022-09-09T05:33:41;99647.38;;;30.97;39.49
64967;BME280;51710;38.732;-121.358;2022-09-09T05:36:11;99650.78;;;30.93;39.54
64967;BME280;51710;38.732;-121.358;2022-09-09T05:38:42;99648.66;;;30.90;39.17
64967;BME280;51710;38.732;-121.358;2022-09-09T05:41:09;99646.22;;;30.89;39.09
64967;BME280;51710;38.732;-121.358;2022-09-09T05:43:37;99643.47;;;30.89;38.43
64967;BME280;51710;38.732;-121.358;2022-09-09T05:46:05;99649.16;;;30.92;37.80
64967;BME280;51710;38.732;-121.358;2022-09-09T05:48:33;99643.50;;;30.98;37.31
64967;BME280;51710;38.732;-121.358;2022-09-09T05:51:00;99641.13;;;31.05;36.71
64967;BME280;51710;38.732;-121.358;2022-09-09T05:53:28;99639.22;;;31.14;36.35
64967;BME280;51710;38.732;-121.358;2022-09-09T05:56:09;99640.84;;;31.23;36.02
64967;BME280;51710;38.732;-121.358;2022-09-09T05:58:40;99644.75;;;31.31;35.98
64967;BME280;51710;38.732;-121.358;2022-09-09T06:01:11;99647.19;;;31.32;36.96
64967;BME280;51710;38.732;-121.358;2022-09-09T06:03:40;99647.00;;;31.29;37.46
64967;BME280;51710;38.732;-121.358;2022-09-09T06:06:13;99646.81;;;31.17;37.26
64967;BME280;51710;38.732;-121.358;2022-09-09T06:08:41;99648.41;;;31.09;37.19
64967;BME280;51710;38.732;-121.358;2022-09-09T06:11:12;99650.47;;;31.04;36.92
64967;BME280;51710;38.732;-121.358;2022-09-09T06:13:39;99646.75;;;31.00;36.90
64967;BME280;51710;38.732;-121.358;2022-09-09T06:16:11;99641.25;;;31.00;36.75
64967;BME280;51710;38.732;-121.358;2022-09-09T06:18:39;99640.63;;;31.03;36.05
64967;BME280;51710;38.732;-121.358;2022-09-09T06:21:09;99640.66;;;31.11;36.28
64967;BME280;51710;38.732;-121.358;2022-09-09T06:23:36;99638.38;;;31.13;36.54
64967;BME280;51710;38.732;-121.358;2022-09-09T06:26:06;99637.56;;;31.13;36.90
64967;BME280;51710;38.732;-121.358;2022-09-09T06:28:34;99638.38;;;31.05;37.67
64967;BME280;51710;38.732;-121.358;2022-09-09T06:31:03;99644.28;;;30.89;38.04
64967;BME280;51710;38.732;-121.358;2022-09-09T06:33:35;99634.81;;;30.73;38.35
64967;BME280;51710;38.732;-121.358;2022-09-09T06:36:03;99636.34;;;30.57;38.99
64967;BME280;51710;38.732;-121.358;2022-09-09T06:38:30;99637.03;;;30.41;39.29
64967;BME280;51710;38.732;-121.358;2022-09-09T06:40:59;99629.38;;;30.29;39.47
64967;BME280;51710;38.732;-121.358;2022-09-09T06:43:27;99630.59;;;30.23;38.75
64967;BME280;51710;38.732;-121.358;2022-09-09T06:45:58;99637.53;;;30.21;38.66
64967;BME280;51710;38.732;-121.358;2022-09-09T06:48:25;99643.47;;;30.14;38.82
64967;BME280;51710;38.732;-121.358;2022-09-09T06:51:06;99642.66;;;30.14;38.31
64967;BME280;51710;38.732;-121.358;2022-09-09T06:53:35;99633.59;;;30.13;38.19
64967;BME280;51710;38.732;-121.358;2022-09-09T06:56:23;99620.47;;;30.10;38.30
64967;BME280;51710;38.732;-121.358;2022-09-09T06:58:51;99630.84;;;30.13;37.46
64967;BME280;51710;38.732;-121.358;2022-09-09T07:01:23;99622.47;;;30.18;37.32
64967;BME280;51710;38.732;-121.358;2022-09-09T07:03:51;99628.38;;;30.25;37.11
64967;BME280;51710;38.732;-121.358;2022-09-09T07:06:24;99626.31;;;30.31;36.87
64967;BME280;51710;38.732;-121.358;2022-09-09T07:09:24;99625.84;;;30.37;36.86
64967;BME280;51710;38.732;-121.358;2022-09-09T07:11:48;99629.28;;;30.43;36.69
64967;BME280;51710;38.732;-121.358;2022-09-09T07:14:17;99625.63;;;30.47;36.32
64967;BME280;51710;38.732;-121.358;2022-09-09T07:16:44;99628.53;;;30.51;36.34
64967;BME280;51710;38.732;-121.358;2022-09-09T07:19:12;99625.97;;;30.54;36.34
64967;BME280;51710;38.732;-121.358;2022-09-09T07:21:40;99626.44;;;30.56;36.37
64967;BME280;51710;38.732;-121.358;2022-09-09T07:24:06;99620.34;;;30.59;35.82
64967;BME280;51710;38.732;-121.358;2022-09-09T07:26:38;99621.94;;;30.60;35.72
64967;BME280;51710;38.732;-121.358;2022-09-09T07:29:05;99622.44;;;30.62;35.93
64967;BME280;51710;38.732;-121.358;2022-09-09T07:31:34;99633.31;;;30.67;35.47
64967;BME280;51710;38.732;-121.358;2022-09-09T07:34:03;99626.69;;;30.68;36.04
64967;BME280;51710;38.732;-121.358;2022-09-09T07:36:33;99629.75;;;30.67;35.90
64967;BME280;51710;38.732;-121.358;2022-09-09T07:39:02;99640.25;;;30.65;35.85
64967;BME280;51710;38.732;-121.358;2022-09-09T07:41:35;99638.94;;;30.62;35.57
64967;BME280;51710;38.732;-121.358;2022-09-09T07:44:16;99633.78;;;30.61;35.78
64967;BME280;51710;38.732;-121.358;2022-09-09T07:46:44;99635.69;;;30.60;35.65
64967;BME280;51710;38.732;-121.358;2022-09-09T07:49:11;99631.66;;;30.58;35.41
64967;BME280;51710;38.732;-121.358;2022-09-09T07:51:40;99636.34;;;30.57;35.62
64967;BME280;51710;38.732;-121.358;2022-09-09T07:54:09;99636.97;;;30.54;36.14
64967;BME280;51710;38.732;-121.358;2022-09-09T07:56:37;99631.13;;;30.47;36.91
64967;BME280;51710;38.732;-121.358;2022-09-09T07:59:04;99631.34;;;30.37;36.87
64967;BME280;51710;38.732;-121.358;2022-09-09T08:01:34;99629.50;;;30.24;37.59
64967;BME280;51710;38.732;-121.358;2022-09-09T08:04:10;99616.00;;;30.14;37.64
64967;BME280;51710;38.732;-121.358;2022-09-09T08:06:43;99618.97;;;30.04;37.47
64967;BME280;51710;38.732;-121.358;2022-09-09T08:09:10;99617.09;;;29.91;38.46
64967;BME280;51710;38.732;-121.358;2022-09-09T08:11:37;99624.69;;;29.72;39.10
64967;BME280;51710;38.732;-121.358;2022-09-09T08:14:04;99625.41;;;29.50;40.22
64967;BME280;51710;38.732;-121.358;2022-09-09T08:16:33;99628.63;;;29.30;40.71
64967;BME280;51710;38.732;-121.358;2022-09-09T08:19:02;99628.72;;;29.12;41.36
64967;BME280;51710;38.732;-121.358;2022-09-09T08:21:31;99626.78;;;28.99;41.26
64967;BME280;51710;38.732;-121.358;2022-09-09T08:23:59;99617.13;;;28.88;41.21
64967;BME280;51710;38.732;-121.358;2022-09-09T08:26:31;99613.75;;;28.77;41.68
64967;BME280;51710;38.732;-121.358;2022-09-09T08:28:59;99614.78;;;28.67;42.28
64967;BME280;51710;38.732;-121.358;2022-09-09T08:31:29;99612.72;;;28.59;41.83
64967;BME280;51710;38.732;-121.358;2022-09-09T08:33:57;99613.44;;;28.51;41.80
64967;BME280;51710;38.732;-121.358;2022-09-09T08:36:27;99613.44;;;28.51;41.43
64967;BME280;51710;38.732;-121.358;2022-09-09T08:38:55;99599.94;;;28.55;40.87
64967;BME280;51710;38.732;-121.358;2022-09-09T08:52:31;99584.53;;;28.72;40.37
64967;BME280;51710;38.732;-121.358;2022-09-09T08:55:35;99582.28;;;28.61;40.61
64967;BME280;51710;38.732;-121.358;2022-09-09T08:58:15;99580.44;;;28.56;41.01
64967;BME280;51710;38.732;-121.358;2022-09-09T09:03:43;99573.34;;;28.55;40.00
64967;BME280;51710;38.732;-121.358;2022-09-09T09:12:00;99573.03;;;28.25;41.58
64967;BME280;51710;38.732;-121.358;2022-09-09T09:14:30;99570.19;;;28.16;41.52
64967;BME280;51710;38.732;-121.358;2022-09-09T09:17:12;99571.19;;;28.07;41.60
64967;BME280;51710;38.732;-121.358;2022-09-09T09:19:42;99567.81;;;27.96;42.14
64967;BME280;51710;38.732;-121.358;2022-09-09T09:22:19;99561.88;;;27.89;42.25
64967;BME280;51710;38.732;-121.358;2022-09-09T09:30:17;99561.44;;;27.82;42.29
64967;BME280;51710;38.732;-121.358;2022-09-09T09:35:22;99551.31;;;27.64;42.40
64967;BME280;51710;38.732;-121.358;2022-09-09T09:37:49;99553.91;;;27.55;42.76
64967;BME280;51710;38.732;-121.358;2022-09-09T09:40:19;99549.88;;;27.53;42.65
64967;BME280;51710;38.732;-121.358;2022-09-09T09:43:03;99542.75;;;27.52;42.87
64967;BME280;51710;38.732;-121.358;2022-09-09T09:45:42;99551.25;;;27.50;42.91
64967;BME280;51710;38.732;-121.358;2022-09-09T09:48:12;99549.13;;;27.47;42.88
64967;BME280;51710;38.732;-121.358;2022-09-09T09:50:51;99539.66;;;27.40;42.87
64967;BME280;51710;38.732;-121.358;2022-09-09T09:53:27;99541.94;;;27.33;42.84
64967;BME280;51710;38.732;-121.358;2022-09-09T09:56:00;99529.88;;;27.34;42.34
64967;BME280;51710;38.732;-121.358;2022-09-09T09:58:31;99528.63;;;27.45;41.85
64967;BME280;51710;38.732;-121.358;2022-09-09T10:01:00;99530.63;;;27.58;41.00
64967;BME280;51710;38.732;-121.358;2022-09-09T10:03:32;99522.78;;;27.70;40.62
64967;BME280;51710;38.732;-121.358;2022-09-09T10:06:04;99523.44;;;27.81;40.81
64967;BME280;51710;38.732;-121.358;2022-09-09T10:08:43;99520.47;;;27.77;41.82
64967;BME280;51710;38.732;-121.358;2022-09-09T10:19:10;99524.75;;;27.27;42.90
64967;BME280;51710;38.732;-121.358;2022-09-09T10:25:02;99522.97;;;26.99;44.68
64967;BME280;51710;38.732;-121.358;2022-09-09T10:30:18;99526.72;;;26.85;44.96
64967;BME280;51710;38.732;-121.358;2022-09-09T10:32:46;99519.41;;;26.80;45.10
64967;BME280;51710;38.732;-121.358;2022-09-09T10:35:24;99524.63;;;26.77;44.69
64967;BME280;51710;38.732;-121.358;2022-09-09T10:38:03;99524.06;;;26.80;43.99
64967;BME280;51710;38.732;-121.358;2022-09-09T10:40:38;99517.41;;;26.86;43.78
64967;BME280;51710;38.732;-121.358;2022-09-09T10:46:27;99522.50;;;26.92;43.89
64967;BME280;51710;38.732;-121.358;2022-09-09T10:57:47;99517.66;;;26.65;44.52
64967;BME280;51710;38.732;-121.358;2022-09-09T11:00:18;99513.88;;;26.61;44.33
64967;BME280;51710;38.732;-121.358;2022-09-09T11:03:01;99513.41;;;26.54;45.13
64967;BME280;51710;38.732;-121.358;2022-09-09T11:05:42;99505.88;;;26.41;44.90
64967;BME280;51710;38.732;-121.358;2022-09-09T11:10:55;99507.38;;;26.34;44.42
64967;BME280;51710;38.732;-121.358;2022-09-09T11:16:23;99500.72;;;26.40;44.68
64967;BME280;51710;38.732;-121.358;2022-09-09T11:18:58;99500.78;;;26.35;44.82
64967;BME280;51710;38.732;-121.358;2022-09-09T11:21:37;99507.41;;;26.29;45.34
64967;BME280;51710;38.732;-121.358;2022-09-09T11:24:18;99505.06;;;26.17;45.52
64967;BME280;51710;38.732;-121.358;2022-09-09T11:27:00;99501.34;;;26.08;45.83
64967;BME280;51710;38.732;-121.358;2022-09-09T11:40:27;99504.28;;;26.40;43.46
64967;BME280;51710;38.732;-121.358;2022-09-09T11:43:23;99507.59;;;26.37;43.11
64967;BME280;51710;38.732;-121.358;2022-09-09T11:45:56;99508.28;;;26.24;42.81
64967;BME280;51710;38.732;-121.358;2022-09-09T11:48:44;99508.16;;;26.11;43.72
64967;BME280;51710;38.732;-121.358;2022-09-09T11:51:27;99501.91;;;26.05;43.75
64967;BME280;51710;38.732;-121.358;2022-09-09T11:54:02;99502.97;;;26.09;43.77
64967;BME280;51710;38.732;-121.358;2022-09-09T11:56:48;99501.25;;;26.18;43.43
64967;BME280;51710;38.732;-121.358;2022-09-09T11:59:37;99494.91;;;26.23;43.57
64967;BME280;51710;38.732;-121.358;2022-09-09T12:02:14;99498.22;;;26.20;44.18
64967;BME280;51710;38.732;-121.358;2022-09-09T12:04:54;99489.81;;;26.16;44.48
64967;BME280;51710;38.732;-121.358;2022-09-09T12:08:15;99479.72;;;26.12;44.74
64967;BME280;51710;38.732;-121.358;2022-09-09T12:10:27;99483.09;;;26.04;44.56
64967;BME280;51710;38.732;-121.358;2022-09-09T12:12:55;99483.94;;;25.99;44.61
64967;BME280;51710;38.732;-121.358;2022-09-09T12:15:28;99487.22;;;25.96;44.44
64967;BME280;51710;38.732;-121.358;2022-09-09T12:17:58;99490.00;;;25.91;44.78
64967;BME280;51710;38.732;-121.358;2022-09-09T12:20:36;99495.53;;;25.86;44.37
64967;BME280;51710;38.732;-121.358;2022-09-09T12:26:03;99491.25;;;25.75;44.23
64967;BME280;51710;38.732;-121.358;2022-09-09T12:28:44;99485.28;;;25.73;44.91
64967;BME280;51710;38.732;-121.358;2022-09-09T12:31:46;99481.25;;;25.66;45.09
64967;BME280;51710;38.732;-121.358;2022-09-09T12:34:30;99486.22;;;25.58;45.43
64967;BME280;51710;38.732;-121.358;2022-09-09T12:39:55;99483.28;;;25.50;46.22
64967;BME280;51710;38.732;-121.358;2022-09-09T12:42:25;99478.44;;;25.42;46.25
64967;BME280;51710;38.732;-121.358;2022-09-09T12:44:56;99493.19;;;25.36;46.25
64967;BME280;51710;38.732;-121.358;2022-09-09T12:47:38;99485.59;;;25.33;46.89
64967;BME280;51710;38.732;-121.358;2022-09-09T12:50:29;99492.13;;;25.32;46.77
64967;BME280;51710;38.732;-121.358;2022-09-09T12:53:03;99489.13;;;25.28;46.87
64967;BME280;51710;38.732;-121.358;2022-09-09T12:55:36;99491.31;;;25.26;47.03
64967;BME280;51710;38.732;-121.358;2022-09-09T12:58:06;99492.25;;;25.12;47.85
64967;BME280;51710;38.732;-121.358;2022-09-09T13:00:34;99488.06;;;24.86;48.15
64967;BME280;51710;38.732;-121.358;2022-09-09T13:03:03;99490.28;;;24.74;47.72
64967;BME280;51710;38.732;-121.358;2022-09-09T13:05:40;99494.63;;;24.75;47.66
64967;BME280;51710;38.732;-121.358;2022-09-09T13:08:09;99494.03;;;24.83;47.99
64967;BME280;51710;38.732;-121.358;2022-09-09T13:13:14;99486.88;;;24.97;47.56
64967;BME280;51710;38.732;-121.358;2022-09-09T13:15:49;99485.47;;;25.04;47.66
64967;BME280;51710;38.732;-121.358;2022-09-09T13:18:20;99489.84;;;25.05;47.57
64967;BME280;51710;38.732;-121.358;2022-09-09T13:20:48;99492.28;;;25.07;47.88
64967;BME280;51710;38.732;-121.358;2022-09-09T13:23:17;99489.56;;;25.07;48.06
64967;BME280;51710;38.732;-121.358;2022-09-09T13:25:55;99493.69;;;24.99;47.72
64967;BME280;51710;38.732;-121.358;2022-09-09T13:28:23;99490.19;;;24.94;47.89
64967;BME280;51710;38.732;-121.358;2022-09-09T13:30:58;99489.34;;;24.93;48.11
64967;BME280;51710;38.732;-121.358;2022-09-09T13:33:45;99488.56;;;24.93;47.88
64967;BME280;51710;38.732;-121.358;2022-09-09T13:36:12;99486.91;;;24.92;47.59
64967;BME280;51710;38.732;-121.358;2022-09-09T13:43:56;99498.66;;;24.87;47.37
64967;BME280;51710;38.732;-121.358;2022-09-09T13:46:33;99494.03;;;24.88;46.62
64967;BME280;51710;38.732;-121.358;2022-09-09T13:51:49;99501.34;;;24.92;46.08
64967;BME280;51710;38.732;-121.358;2022-09-09T13:54:20;99494.81;;;24.93;45.90
64967;BME280;51710;38.732;-121.358;2022-09-09T13:56:47;99495.63;;;24.94;45.80
64967;BME280;51710;38.732;-121.358;2022-09-09T13:59:17;99502.44;;;24.96;45.62
64967;BME280;51710;38.732;-121.358;2022-09-09T14:01:47;99502.16;;;24.98;44.93
64967;BME280;51710;38.732;-121.358;2022-09-09T14:04:15;99507.84;;;25.01;44.39
64967;BME280;51710;38.732;-121.358;2022-09-09T14:06:42;99509.75;;;25.01;44.46
64967;BME280;51710;38.732;-121.358;2022-09-09T14:09:13;99514.38;;;25.00;44.68
64967;BME280;51710;38.732;-121.358;2022-09-09T14:11:41;99514.38;;;25.00;44.47
64967;BME280;51710;38.732;-121.358;2022-09-09T14:14:07;99517.09;;;25.00;44.22
64967;BME280;51710;38.732;-121.358;2022-09-09T14:16:34;99528.00;;;25.00;44.63
64967;BME280;51710;38.732;-121.358;2022-09-09T14:19:01;99527.75;;;25.02;44.49
64967;BME280;51710;38.732;-121.358;2022-09-09T14:21:28;99520.13;;;24.99;44.98
64967;BME280;51710;38.732;-121.358;2022-09-09T14:23:54;99520.16;;;24.94;45.50
64967;BME280;51710;38.732;-121.358;2022-09-09T14:26:24;99518.31;;;24.84;45.34
64967;BME280;51710;38.732;-121.358;2022-09-09T14:28:50;99512.91;;;24.69;46.15
64967;BME280;51710;38.732;-121.358;2022-09-09T14:31:17;99506.41;;;24.50;46.80
64967;BME280;51710;38.732;-121.358;2022-09-09T14:33:44;99497.47;;;24.34;46.50
64967;BME280;51710;38.732;-121.358;2022-09-09T14:36:11;99500.22;;;24.24;46.77
64967;BME280;51710;38.732;-121.358;2022-09-09T14:38:38;99499.16;;;24.15;47.09
64967;BME280;51710;38.732;-121.358;2022-09-09T14:41:16;99499.72;;;24.17;46.98
64967;BME280;51710;38.732;-121.358;2022-09-09T14:43:44;99495.31;;;24.31;46.46
64967;BME280;51710;38.732;-121.358;2022-09-09T14:46:13;99494.72;;;24.49;45.96
64967;BME280;51710;38.732;-121.358;2022-09-09T14:48:40;99499.00;;;24.71;45.37
64967;BME280;51710;38.732;-121.358;2022-09-09T14:51:16;99503.25;;;24.92;45.49
64967;BME280;51710;38.732;-121.358;2022-09-09T14:53:43;99501.00;;;25.09;45.79
64967;BME280;51710;38.732;-121.358;2022-09-09T14:56:17;99508.78;;;25.25;45.37
64967;BME280;51710;38.732;-121.358;2022-09-09T14:58:44;99507.09;;;25.39;45.06
64967;BME280;51710;38.732;-121.358;2022-09-09T15:01:16;99508.91;;;25.54;44.90
64967;BME280;51710;38.732;-121.358;2022-09-09T15:03:52;99500.88;;;25.68;44.61
64967;BME280;51710;38.732;-121.358;2022-09-09T15:06:21;99502.16;;;25.75;44.25